createdAt,value
2018-07-25T00:01:56.029Z,9.50
2018-07-25T00:04:23.653Z,8.47
2018-07-25T00:06:51.326Z,9.20
2018-07-25T00:09:19.064Z,8.77
2018-07-25T00:11:46.697Z,9.77
2018-07-25T00:14:14.360Z,8.07
2018-07-25T00:16:42.025Z,7.00
2018-07-25T00:19:09.744Z,11.73
2018-07-25T00:21:37.443Z,11.07
2018-07-25T00:24:05.110Z,9.23
2018-07-25T00:26:32.788Z,10.07
2018-07-25T00:29:00.604Z,17.00
2018-07-25T00:31:28.238Z,11.83
2018-07-25T00:33:55.877Z,9.73
2018-07-25T00:36:25.064Z,9.60
2018-07-25T00:38:52.724Z,9.60
2018-07-25T00:41:20.413Z,15.23
2018-07-25T00:43:48.070Z,14.77
2018-07-25T00:46:15.807Z,11.97
2018-07-25T00:48:43.486Z,13.00
2018-07-25T00:51:11.220Z,12.50
2018-07-25T00:53:38.989Z,12.27
2018-07-25T00:56:06.650Z,14.33
2018-07-25T00:58:34.373Z,13.20
2018-07-25T01:01:02.179Z,11.53
2018-07-25T01:03:29.835Z,17.80
2018-07-25T01:05:57.473Z,17.00
2018-07-25T01:08:25.137Z,10.57
2018-07-25T01:10:53.214Z,13.40
2018-07-25T01:13:20.856Z,19.03
2018-07-25T01:15:48.536Z,17.20
2018-07-25T01:18:16.206Z,14.13
2018-07-25T01:20:43.918Z,16.33
2018-07-25T01:23:11.596Z,12.27
2018-07-25T01:25:39.243Z,11.53
2018-07-25T01:28:06.917Z,10.90
2018-07-25T01:30:34.630Z,10.03
2018-07-25T01:33:02.347Z,11.63
2018-07-25T01:35:30.011Z,13.23
2018-07-25T01:37:57.740Z,10.17
2018-07-25T01:40:25.389Z,11.70
2018-07-25T01:42:53.169Z,10.40
2018-07-25T01:45:20.873Z,10.67
2018-07-25T01:47:48.492Z,10.37
2018-07-25T01:50:16.145Z,10.30
2018-07-25T01:52:43.842Z,12.67
2018-07-25T01:55:11.515Z,11.30
2018-07-25T01:57:39.205Z,12.00
2018-07-25T02:00:06.924Z,9.87
2018-07-25T02:02:34.687Z,13.00
2018-07-25T02:05:02.361Z,13.90
2018-07-25T02:07:29.963Z,12.87
2018-07-25T02:09:57.660Z,11.27
2018-07-25T02:12:25.323Z,10.17
2018-07-25T02:14:52.943Z,11.50
2018-07-25T02:17:20.558Z,9.63
2018-07-25T02:19:48.220Z,12.57
2018-07-25T02:22:15.889Z,10.17
2018-07-25T02:24:43.552Z,10.87
2018-07-25T02:27:11.248Z,10.10
2018-07-25T02:29:38.922Z,10.40
2018-07-25T02:32:06.555Z,11.40
2018-07-25T02:34:34.171Z,10.57
2018-07-25T02:37:01.859Z,9.73
2018-07-25T02:39:29.502Z,11.17
2018-07-25T02:41:57.210Z,9.87
2018-07-25T02:44:24.906Z,10.37
2018-07-25T02:46:52.550Z,9.60
2018-07-25T02:49:20.218Z,8.43
2018-07-25T02:51:47.841Z,10.70
2018-07-25T02:54:15.553Z,9.00
2018-07-25T02:56:43.241Z,10.63
2018-07-25T02:59:10.873Z,8.90
2018-07-25T03:01:38.554Z,8.47
2018-07-25T03:04:06.229Z,8.43
2018-07-25T03:06:33.917Z,6.30
2018-07-25T03:09:01.710Z,7.17
2018-07-25T03:11:29.466Z,8.40
2018-07-25T03:13:57.113Z,8.57
2018-07-25T03:16:24.820Z,8.93
2018-07-25T03:18:52.474Z,7.80
2018-07-25T03:21:20.157Z,9.07
2018-07-25T03:23:47.815Z,7.90
2018-07-25T03:26:15.449Z,9.53
2018-07-25T03:28:43.118Z,8.97
2018-07-25T03:31:10.740Z,9.13
2018-07-25T03:33:38.375Z,8.30
2018-07-25T03:36:06.132Z,7.40
2018-07-25T03:38:33.842Z,7.97
2018-07-25T03:41:01.496Z,9.03
2018-07-25T03:43:29.180Z,9.30
2018-07-25T03:45:56.918Z,9.50
2018-07-25T03:48:24.554Z,9.17
2018-07-25T03:50:52.206Z,9.63
2018-07-25T03:53:19.927Z,7.73
2018-07-25T03:55:47.610Z,7.20
2018-07-25T03:58:15.312Z,8.10
2018-07-25T04:00:42.957Z,7.43
2018-07-25T04:03:10.645Z,6.70
2018-07-25T04:05:38.293Z,7.50
2018-07-25T04:08:06.067Z,7.07
2018-07-25T04:10:33.752Z,6.53
2018-07-25T04:13:01.420Z,5.70
2018-07-25T04:15:29.166Z,5.43
2018-07-25T04:17:56.875Z,5.40
2018-07-25T04:20:24.635Z,5.80
2018-07-25T04:22:52.329Z,5.47
2018-07-25T04:25:19.986Z,5.40
2018-07-25T04:27:47.690Z,4.53
2018-07-25T04:30:16.446Z,4.93
2018-07-25T04:32:44.640Z,4.60
2018-07-25T04:35:13.484Z,4.80
2018-07-25T04:37:41.737Z,5.63
2018-07-25T04:40:09.413Z,4.57
2018-07-25T04:42:37.472Z,5.07
2018-07-25T04:45:06.364Z,4.70
2018-07-25T04:47:34.021Z,5.50
2018-07-25T04:50:01.700Z,5.33
2018-07-25T04:52:29.471Z,6.73
2018-07-25T04:54:57.135Z,5.13
2018-07-25T04:57:24.817Z,5.03
2018-07-25T04:59:52.495Z,6.80
2018-07-25T05:02:20.217Z,6.10
2018-07-25T05:04:47.914Z,5.47
2018-07-25T05:07:15.640Z,4.45
2018-07-25T05:09:43.334Z,6.78
2018-07-25T05:12:11.115Z,4.45
2018-07-25T05:14:38.781Z,4.95
2018-07-25T05:17:06.511Z,4.70
2018-07-25T05:19:34.233Z,5.35
2018-07-25T05:22:01.943Z,7.42
2018-07-25T05:24:30.410Z,4.95
2018-07-25T05:26:58.100Z,7.00
2018-07-25T05:29:25.822Z,4.83
2018-07-25T05:31:53.506Z,5.12
2018-07-25T05:34:21.190Z,4.87
2018-07-25T05:36:48.917Z,4.40
2018-07-25T05:39:16.663Z,6.28
2018-07-25T05:41:44.395Z,5.47
2018-07-25T05:44:12.184Z,4.22
2018-07-25T05:46:39.894Z,4.62
2018-07-25T05:49:07.597Z,5.60
2018-07-25T05:51:35.753Z,6.92
2018-07-25T05:54:03.600Z,4.03
2018-07-25T05:56:31.568Z,5.00
2018-07-25T05:58:59.904Z,4.62
2018-07-25T06:01:27.666Z,5.90
2018-07-25T06:03:55.382Z,4.90
2018-07-25T06:06:23.397Z,5.58
2018-07-25T06:08:51.316Z,4.37
2018-07-25T06:11:19.045Z,4.00
2018-07-25T06:13:46.737Z,4.55
2018-07-25T06:16:14.432Z,6.62
2018-07-25T06:18:42.191Z,4.45
2018-07-25T06:21:09.944Z,4.28
2018-07-25T06:23:37.664Z,4.75
2018-07-25T06:26:05.707Z,5.40
2018-07-25T06:28:33.404Z,5.60
2018-07-25T06:31:01.148Z,4.20
2018-07-25T06:33:28.827Z,5.55
2018-07-25T06:35:56.576Z,4.85
2018-07-25T06:38:24.852Z,4.83
2018-07-25T06:40:52.588Z,5.05
2018-07-25T06:43:20.351Z,4.62
2018-07-25T06:45:48.166Z,5.22
2018-07-25T06:48:16.125Z,5.37
2018-07-25T06:50:43.949Z,4.30
2018-07-25T06:53:12.131Z,4.22
2018-07-25T06:55:39.844Z,4.72
2018-07-25T06:58:07.558Z,4.75
2018-07-25T07:00:35.213Z,3.85
2018-07-25T07:03:02.902Z,3.65
2018-07-25T07:05:30.641Z,6.08
2018-07-25T07:08:03.336Z,4.92
2018-07-25T07:10:31.013Z,4.83
2018-07-25T07:12:58.751Z,7.20
2018-07-25T07:15:26.472Z,5.08
2018-07-25T07:17:54.200Z,3.40
2018-07-25T07:20:21.883Z,3.65
2018-07-25T07:22:49.744Z,3.90
2018-07-25T07:25:17.419Z,4.47
2018-07-25T07:27:45.209Z,5.10
2018-07-25T07:30:13.029Z,5.72
2018-07-25T07:32:40.700Z,3.55
2018-07-25T07:35:08.497Z,4.00
2018-07-25T07:37:36.307Z,3.10
2018-07-25T07:40:04.315Z,3.42
2018-07-25T07:42:32.133Z,4.75
2018-07-25T07:44:59.851Z,4.83
2018-07-25T07:47:27.562Z,4.15
2018-07-25T07:49:55.250Z,3.90
2018-07-25T07:52:23.017Z,4.47
2018-07-25T07:54:50.705Z,5.05
2018-07-25T07:57:18.385Z,3.20
2018-07-25T07:59:46.248Z,4.25
2018-07-25T08:02:14.026Z,3.75
2018-07-25T08:04:41.783Z,5.62
2018-07-25T08:07:09.554Z,3.85
2018-07-25T08:09:37.283Z,4.12
2018-07-25T08:12:05.046Z,4.20
2018-07-25T08:14:32.765Z,5.12
2018-07-25T08:17:00.489Z,4.53
2018-07-25T08:19:28.217Z,6.33
2018-07-25T08:21:55.974Z,3.92
2018-07-25T08:24:23.654Z,4.17
2018-07-25T08:26:51.378Z,3.90
2018-07-25T08:29:19.510Z,7.42
2018-07-25T08:31:47.243Z,6.47
2018-07-25T08:34:14.956Z,4.83
2018-07-25T08:36:42.714Z,5.20
2018-07-25T08:39:10.476Z,4.45
2018-07-25T08:41:38.195Z,4.90
2018-07-25T08:44:06.439Z,5.45
2018-07-25T08:46:34.175Z,4.33
2018-07-25T08:49:01.916Z,4.83
2018-07-25T08:51:29.618Z,4.17
2018-07-25T08:53:57.261Z,4.55
2018-07-25T08:56:24.996Z,3.62
2018-07-25T08:58:52.694Z,6.28
2018-07-25T09:01:20.368Z,5.15
2018-07-25T09:03:48.050Z,4.20
2018-07-25T09:06:15.789Z,5.17
2018-07-25T09:08:43.887Z,4.22
2018-07-25T09:11:11.612Z,4.22
2018-07-25T09:13:39.328Z,4.47
2018-07-25T09:16:07.032Z,4.25
2018-07-25T09:18:34.701Z,8.83
2018-07-25T09:21:02.796Z,4.33
2018-07-25T09:23:30.439Z,5.67
2018-07-25T09:25:58.130Z,3.70
2018-07-25T09:28:25.839Z,3.65
2018-07-25T09:30:53.602Z,6.22
2018-07-25T09:33:22.316Z,3.33
2018-07-25T09:35:50.044Z,4.75
2018-07-25T09:38:18.098Z,2.92
2018-07-25T09:40:46.869Z,4.87
2018-07-25T09:43:14.666Z,3.60
2018-07-25T09:45:42.429Z,3.72
2018-07-25T09:48:10.124Z,4.22
2018-07-25T09:50:38.731Z,3.60
2018-07-25T09:53:06.505Z,5.10
2018-07-25T09:55:34.113Z,5.08
2018-07-25T09:58:01.804Z,8.35
2018-07-25T10:00:35.258Z,5.40
2018-07-25T10:03:03.011Z,5.03
2018-07-25T10:05:30.666Z,3.05
2018-07-25T10:07:58.358Z,3.58
2018-07-25T10:10:26.073Z,4.50
2018-07-25T10:12:53.749Z,4.10
2018-07-25T10:15:21.487Z,4.15
2018-07-25T10:17:49.197Z,3.85
2018-07-25T10:20:16.908Z,3.47
2018-07-25T10:22:44.644Z,3.52
2018-07-25T10:25:12.382Z,6.28
2018-07-25T10:27:40.130Z,3.50
2018-07-25T10:30:07.891Z,3.60
2018-07-25T10:32:35.609Z,3.72
2018-07-25T10:35:03.403Z,3.55
2018-07-25T10:37:31.105Z,4.42
2018-07-25T10:39:58.808Z,3.60
2018-07-25T10:42:26.580Z,3.47
2018-07-25T10:44:54.323Z,3.75
2018-07-25T10:47:22.014Z,6.28
2018-07-25T10:49:49.750Z,6.42
2018-07-25T10:52:17.481Z,3.37
2018-07-25T10:54:45.221Z,4.62
2018-07-25T10:57:13.049Z,3.08
2018-07-25T10:59:40.790Z,2.87
2018-07-25T11:02:08.533Z,3.27
2018-07-25T11:04:36.262Z,4.35
2018-07-25T11:07:04.000Z,7.30
2018-07-25T11:09:31.878Z,5.47
2018-07-25T11:11:59.601Z,4.37
2018-07-25T11:14:27.349Z,4.30
2018-07-25T11:16:55.128Z,4.25
2018-07-25T11:19:22.866Z,3.65
2018-07-25T11:21:51.357Z,4.25
2018-07-25T11:24:19.492Z,3.52
2018-07-25T11:26:47.238Z,5.10
2018-07-25T11:29:14.939Z,5.45
2018-07-25T11:31:42.638Z,4.08
2018-07-25T11:34:11.209Z,3.27
2018-07-25T11:36:38.899Z,5.37
2018-07-25T11:39:09.448Z,2.92
2018-07-25T11:41:37.169Z,3.75
2018-07-25T11:44:04.929Z,2.92
2018-07-25T11:46:32.617Z,3.10
2018-07-25T11:49:00.262Z,4.42
2018-07-25T11:51:28.005Z,4.05
2018-07-25T11:53:55.680Z,3.33
2018-07-25T11:56:23.356Z,3.95
2018-07-25T11:58:51.078Z,3.00
2018-07-25T12:01:18.912Z,2.95
2018-07-25T12:03:46.752Z,2.77
2018-07-25T12:06:14.627Z,4.90
2018-07-25T12:08:42.344Z,4.55
2018-07-25T12:11:10.306Z,5.00
2018-07-25T12:13:38.316Z,3.37
2018-07-25T12:16:06.051Z,2.83
2018-07-25T12:18:33.794Z,3.50
2018-07-25T12:21:01.582Z,4.03
2018-07-25T12:23:29.460Z,5.28
2018-07-25T12:25:57.198Z,2.87
2018-07-25T12:28:24.936Z,3.37
2018-07-25T12:30:52.922Z,4.75
2018-07-25T12:33:20.670Z,3.47
2018-07-25T12:35:48.348Z,3.92
2018-07-25T12:38:16.129Z,4.72
2018-07-25T12:40:43.856Z,5.17
2018-07-25T12:43:11.568Z,4.87
2018-07-25T12:45:39.319Z,5.42
2018-07-25T12:48:07.076Z,5.37
2018-07-25T12:50:34.859Z,3.65
2018-07-25T12:53:02.638Z,6.28
2018-07-25T12:55:30.337Z,4.45
2018-07-25T12:57:58.078Z,3.50
2018-07-25T13:00:26.172Z,4.17
2018-07-25T13:02:53.898Z,4.67
2018-07-25T13:05:21.645Z,4.00
2018-07-25T13:07:49.389Z,3.10
2018-07-25T13:10:17.184Z,3.65
2018-07-25T13:12:44.938Z,8.10
2018-07-25T13:15:12.721Z,4.97
2018-07-25T13:17:40.443Z,3.22
2018-07-25T13:20:08.313Z,4.17
2018-07-25T13:22:36.135Z,6.12
2018-07-25T13:25:04.157Z,4.30
2018-07-25T13:27:32.099Z,3.85
2018-07-25T13:29:59.852Z,4.33
2018-07-25T13:32:27.623Z,4.97
2018-07-25T13:34:55.387Z,4.33
2018-07-25T13:37:23.120Z,3.42
2018-07-25T13:39:50.935Z,5.08
2018-07-25T13:42:18.895Z,3.87
2018-07-25T13:44:46.601Z,5.58
2018-07-25T13:47:14.349Z,5.90
2018-07-25T13:49:42.238Z,4.40
2018-07-25T13:52:09.991Z,5.42
2018-07-25T13:54:37.943Z,3.90
2018-07-25T13:57:05.811Z,5.42
2018-07-25T13:59:33.522Z,4.85
2018-07-25T14:02:01.244Z,5.20
2018-07-25T14:04:29.011Z,5.10
2018-07-25T14:06:56.729Z,4.08
2018-07-25T14:09:24.446Z,3.33
2018-07-25T14:11:52.384Z,3.02
2018-07-25T14:14:20.109Z,2.90
2018-07-25T14:16:47.903Z,7.22
2018-07-25T14:19:15.705Z,4.45
2018-07-25T14:21:43.450Z,4.25
2018-07-25T14:24:11.224Z,5.08
2018-07-25T14:26:39.029Z,3.45
2018-07-25T14:29:06.754Z,4.10
2018-07-25T14:31:34.427Z,3.62
2018-07-25T14:34:02.275Z,4.35
2018-07-25T14:36:30.083Z,4.20
2018-07-25T14:38:57.840Z,3.60
2018-07-25T14:41:25.547Z,3.75
2018-07-25T14:43:54.309Z,7.22
2018-07-25T14:46:22.057Z,5.10
2018-07-25T14:48:49.783Z,6.00
2018-07-25T14:51:17.570Z,3.83
2018-07-25T14:53:45.218Z,4.22
2018-07-25T14:56:12.909Z,4.12
2018-07-25T14:58:40.749Z,6.05
2018-07-25T15:01:08.471Z,4.55
2018-07-25T15:03:36.219Z,3.12
2018-07-25T15:06:04.043Z,5.62
2018-07-25T15:08:31.737Z,4.22
2018-07-25T15:10:59.470Z,5.08
2018-07-25T15:13:27.122Z,5.37
2018-07-25T15:15:54.848Z,3.70
2018-07-25T15:18:22.581Z,2.75
2018-07-25T15:20:50.276Z,4.42
2018-07-25T15:23:29.198Z,6.85
2018-07-25T15:25:56.905Z,5.30
2018-07-25T15:28:24.773Z,3.95
2018-07-25T15:30:52.560Z,3.83
2018-07-25T15:33:20.317Z,4.20
2018-07-25T15:35:48.078Z,4.45
2018-07-25T15:38:15.909Z,6.70
2018-07-25T15:40:43.655Z,4.08
2018-07-25T15:43:11.442Z,4.20
2018-07-25T15:45:39.186Z,3.72
2018-07-25T15:48:06.991Z,4.22
2018-07-25T15:50:34.785Z,4.83
2018-07-25T15:53:02.592Z,5.17
2018-07-25T15:55:30.385Z,4.50
2018-07-25T15:57:58.141Z,3.50
2018-07-25T16:00:25.941Z,4.47
2018-07-25T16:02:53.788Z,6.17
2018-07-25T16:05:21.619Z,3.30
2018-07-25T16:07:49.422Z,3.75
2018-07-25T16:10:17.248Z,5.05
2018-07-25T16:12:45.053Z,3.52
2018-07-25T16:15:12.811Z,5.70
2018-07-25T16:17:40.612Z,4.25
2018-07-25T16:20:08.425Z,3.35
2018-07-25T16:22:36.240Z,4.17
2018-07-25T16:25:04.185Z,4.70
2018-07-25T16:27:31.980Z,4.20
2018-07-25T16:29:59.758Z,4.62
2018-07-25T16:32:27.554Z,3.52
2018-07-25T16:34:55.327Z,3.77
2018-07-25T16:37:23.122Z,4.00
2018-07-25T16:39:50.927Z,5.05
2018-07-25T16:42:18.668Z,5.00
2018-07-25T16:44:46.455Z,6.80
2018-07-25T16:47:14.235Z,4.92
2018-07-25T16:49:42.070Z,5.58
2018-07-25T16:52:09.873Z,3.77
2018-07-25T16:54:37.759Z,3.67
2018-07-25T16:57:05.655Z,4.17
2018-07-25T16:59:33.475Z,4.15
2018-07-25T17:02:01.274Z,4.17
2018-07-25T17:04:29.069Z,3.83
2018-07-25T17:06:57.088Z,4.37
2018-07-25T17:09:24.840Z,3.67
2018-07-25T17:11:52.628Z,5.58
2018-07-25T17:14:20.744Z,5.37
2018-07-25T17:16:48.516Z,3.52
2018-07-25T17:19:16.300Z,4.30
2018-07-25T17:21:44.069Z,4.27
2018-07-25T17:24:11.836Z,4.62
2018-07-25T17:26:39.668Z,3.87
2018-07-25T17:29:07.443Z,3.60
2018-07-25T17:31:35.225Z,4.95
2018-07-25T17:34:02.987Z,5.65
2018-07-25T17:36:30.804Z,5.03
2018-07-25T17:38:58.552Z,5.47
2018-07-25T17:41:26.377Z,4.35
2018-07-25T17:43:54.203Z,4.87
2018-07-25T17:46:22.372Z,5.33
2018-07-25T17:48:50.123Z,5.63
2018-07-25T17:51:17.945Z,6.33
2018-07-25T17:53:45.682Z,4.50
2018-07-25T17:56:13.516Z,6.93
2018-07-25T17:58:41.295Z,4.40
2018-07-25T18:01:09.439Z,5.60
2018-07-25T18:03:37.342Z,6.03
2018-07-25T18:06:05.557Z,4.80
2018-07-25T18:08:33.344Z,6.10
2018-07-25T18:11:01.149Z,4.60
2018-07-25T18:13:34.494Z,9.80
2018-07-25T18:16:02.299Z,6.40
2018-07-25T18:18:30.120Z,4.87
2018-07-25T18:20:58.310Z,5.17
2018-07-25T18:23:26.087Z,8.13
2018-07-25T18:25:53.894Z,5.13
2018-07-25T18:28:21.718Z,5.93
2018-07-25T18:30:49.480Z,5.73
2018-07-25T18:33:17.284Z,6.30
2018-07-25T18:35:45.125Z,7.90
2018-07-25T18:38:12.868Z,5.97
2018-07-25T18:40:40.620Z,6.23
2018-07-25T18:43:08.385Z,6.13
2018-07-25T18:45:36.187Z,7.13
2018-07-25T18:48:04.025Z,6.07
2018-07-25T18:50:31.769Z,6.93
2018-07-25T18:52:59.539Z,6.83
2018-07-25T18:55:27.301Z,4.87
2018-07-25T18:57:55.090Z,6.17
2018-07-25T19:00:22.817Z,6.13
2018-07-25T19:02:50.556Z,4.90
2018-07-25T19:05:22.931Z,6.03
2018-07-25T19:07:50.708Z,7.50
2018-07-25T19:10:18.429Z,7.67
2018-07-25T19:12:46.185Z,5.70
2018-07-25T19:15:19.548Z,6.70
2018-07-25T19:17:47.348Z,6.57
2018-07-25T19:20:15.065Z,5.80
2018-07-25T19:22:42.795Z,5.93
2018-07-25T19:25:10.577Z,5.17
2018-07-25T19:27:38.315Z,5.63
2018-07-25T19:30:06.065Z,5.23
2018-07-25T19:32:33.883Z,5.63
2018-07-25T19:35:01.616Z,5.60
2018-07-25T19:37:29.349Z,6.60
2018-07-25T19:39:57.123Z,5.70
2018-07-25T19:42:24.949Z,5.40
2018-07-25T19:44:52.659Z,5.30
2018-07-25T19:47:20.791Z,6.33
2018-07-25T19:49:48.503Z,6.40
2018-07-25T19:52:16.281Z,6.70
2018-07-25T19:54:44.253Z,5.67
2018-07-25T19:57:11.992Z,4.70
2018-07-25T19:59:39.684Z,4.70
2018-07-25T20:02:07.866Z,7.30
2018-07-25T20:04:35.591Z,5.00
2018-07-25T20:07:03.394Z,7.53
2018-07-25T20:09:31.158Z,6.67
2018-07-25T20:11:58.905Z,4.87
2018-07-25T20:14:32.602Z,7.90
2018-07-25T20:17:00.309Z,6.00
2018-07-25T20:19:28.077Z,7.03
2018-07-25T20:21:55.865Z,6.47
2018-07-25T20:24:23.754Z,6.87
2018-07-25T20:26:51.372Z,5.70
2018-07-25T20:29:19.174Z,4.50
2018-07-25T20:31:46.982Z,6.30
2018-07-25T20:34:15.195Z,7.17
2018-07-25T20:36:43.250Z,6.60
2018-07-25T20:39:11.910Z,9.53
2018-07-25T20:41:40.096Z,5.90
2018-07-25T20:44:08.683Z,8.50
2018-07-25T20:46:36.417Z,5.53
2018-07-25T20:49:04.434Z,7.07
2018-07-25T20:51:32.206Z,8.23
2018-07-25T20:54:00.508Z,8.17
2018-07-25T20:56:28.258Z,7.73
2018-07-25T20:58:56.011Z,8.53
2018-07-25T21:01:23.763Z,8.77
2018-07-25T21:03:51.552Z,10.80
2018-07-25T21:06:19.279Z,8.03
2018-07-25T21:08:47.058Z,6.20
2018-07-25T21:11:14.831Z,9.73
2018-07-25T21:13:43.949Z,7.40
2018-07-25T21:16:11.945Z,8.60
2018-07-25T21:18:39.666Z,7.40
2018-07-25T21:21:07.416Z,7.93
2018-07-25T21:23:35.209Z,7.87
2018-07-25T21:26:02.916Z,9.30
2018-07-25T21:28:30.649Z,7.50
2018-07-25T21:30:58.397Z,5.10
2018-07-25T21:33:26.113Z,7.43
2018-07-25T21:35:53.924Z,7.60
2018-07-25T21:38:21.623Z,5.97
2018-07-25T21:40:49.349Z,8.10
2018-07-25T21:43:17.082Z,7.33
2018-07-25T21:45:44.824Z,10.60
2018-07-25T21:48:12.562Z,7.47
2018-07-25T21:50:40.257Z,8.20
2018-07-25T21:53:08.036Z,8.80
2018-07-25T21:55:35.787Z,11.90
2018-07-25T21:58:03.536Z,9.63
2018-07-25T22:00:31.350Z,7.10
2018-07-25T22:02:59.074Z,7.73
2018-07-25T22:05:26.833Z,8.73
2018-07-25T22:07:54.630Z,8.00
2018-07-25T22:10:25.400Z,8.17
2018-07-25T22:12:53.676Z,7.13
2018-07-25T22:15:21.386Z,8.23
2018-07-25T22:17:49.148Z,8.57
2018-07-25T22:20:16.923Z,9.40
2018-07-25T22:22:44.665Z,7.57
2018-07-25T22:25:12.373Z,10.13
2018-07-25T22:27:40.314Z,8.07
2018-07-25T22:30:08.399Z,8.70
2018-07-25T22:32:36.135Z,10.70
2018-07-25T22:35:03.920Z,7.60
2018-07-25T22:37:31.665Z,6.80
2018-07-25T22:39:59.403Z,7.37
2018-07-25T22:42:27.118Z,9.77
2018-07-25T22:44:54.830Z,8.77
2018-07-25T22:47:22.537Z,7.20
2018-07-25T22:49:50.280Z,6.60
2018-07-25T22:52:18.027Z,7.00
2018-07-25T22:54:45.762Z,7.87
2018-07-25T22:57:13.545Z,8.40
2018-07-25T22:59:41.320Z,7.90
2018-07-25T23:02:09.037Z,7.10
2018-07-25T23:04:36.800Z,8.40
2018-07-25T23:07:04.801Z,10.70
2018-07-25T23:09:32.512Z,8.40
2018-07-25T23:12:00.264Z,9.60
2018-07-25T23:14:28.006Z,10.87
2018-07-25T23:16:55.709Z,8.40
2018-07-25T23:19:23.479Z,9.67
2018-07-25T23:21:51.281Z,9.33
2018-07-25T23:24:18.964Z,7.63
2018-07-25T23:26:46.757Z,8.53
2018-07-25T23:29:14.504Z,6.90
2018-07-25T23:31:42.277Z,7.63
2018-07-25T23:34:09.974Z,6.53
2018-07-25T23:36:37.713Z,7.23
2018-07-25T23:39:07.537Z,9.47
2018-07-25T23:41:35.239Z,8.80
2018-07-25T23:44:02.960Z,7.07
2018-07-25T23:46:30.685Z,8.97
2018-07-25T23:48:58.415Z,9.50
2018-07-25T23:51:26.146Z,6.87
2018-07-25T23:53:53.922Z,9.77
2018-07-25T23:56:21.711Z,6.87
2018-07-25T23:58:49.402Z,7.33
